createdAt,value
2022-10-24T00:09:41.847Z,0.50
2022-10-24T00:19:43.294Z,0.40
2022-10-24T00:29:44.862Z,0.65
2022-10-24T00:39:46.310Z,0.60
2022-10-24T00:50:10.777Z,0.60
2022-10-24T01:00:25.346Z,0.50
2022-10-24T01:20:55.731Z,0.57
2022-10-24T01:31:03.270Z,0.50
2022-10-24T01:41:08.128Z,0.45
2022-10-24T01:51:11.598Z,0.40
2022-10-24T02:01:16.654Z,0.50
2022-10-24T02:11:18.270Z,0.40
2022-10-24T02:21:29.149Z,0.50
2022-10-24T02:31:34.384Z,0.40
2022-10-24T02:51:40.174Z,0.40
2022-10-24T03:01:41.625Z,0.40
2022-10-24T03:11:43.043Z,0.50
2022-10-24T03:21:44.512Z,0.60
2022-10-24T03:31:46.261Z,0.43
2022-10-24T03:41:47.706Z,0.68
2022-10-24T03:51:49.170Z,0.40
2022-10-24T04:01:50.788Z,0.40
2022-10-24T04:11:53.455Z,0.50
2022-10-24T04:21:54.950Z,0.43
2022-10-24T04:31:56.412Z,0.50
2022-10-24T04:41:57.814Z,0.60
2022-10-24T04:51:59.257Z,0.50
2022-10-24T05:02:00.699Z,0.55
2022-10-24T05:12:02.307Z,0.50
2022-10-24T05:22:05.999Z,0.50
2022-10-24T05:32:10.062Z,0.40
2022-10-24T05:42:11.550Z,0.50
2022-10-24T05:52:12.962Z,0.50
2022-10-24T06:02:19.827Z,0.60
2022-10-24T06:12:21.371Z,0.50
2022-10-24T06:22:27.697Z,0.82
2022-10-24T06:32:29.081Z,0.85
2022-10-24T06:42:30.537Z,1.25
2022-10-24T06:52:32.022Z,0.95
2022-10-24T07:02:33.472Z,1.33
2022-10-24T07:12:35.020Z,1.05
2022-10-24T07:22:36.918Z,1.30
2022-10-24T07:32:38.315Z,1.15
2022-10-24T07:42:39.814Z,1.15
2022-10-24T07:52:41.198Z,1.00
2022-10-24T08:02:42.760Z,0.95
2022-10-24T08:12:44.540Z,1.10
2022-10-24T08:22:46.613Z,0.90
2022-10-24T08:32:48.448Z,1.10
2022-10-24T08:42:50.122Z,1.42
2022-10-24T08:53:06.761Z,1.27
2022-10-24T09:03:57.641Z,1.15
2022-10-24T09:14:02.619Z,1.42
2022-10-24T09:24:04.473Z,1.00
2022-10-24T09:34:07.174Z,1.42
2022-10-24T09:44:28.999Z,1.00
2022-10-24T09:54:33.024Z,1.10
2022-10-24T10:04:34.570Z,0.90
2022-10-24T10:14:40.739Z,1.10
2022-10-24T10:24:43.477Z,0.82
2022-10-24T10:34:47.717Z,1.10
2022-10-24T10:44:55.235Z,1.63
2022-10-24T10:55:20.546Z,1.10
2022-10-24T11:05:33.626Z,1.50
2022-10-24T11:15:37.646Z,0.90
2022-10-24T11:25:57.490Z,0.85
2022-10-24T11:36:10.142Z,0.77
2022-10-24T11:46:20.569Z,0.70
2022-10-24T11:56:37.370Z,0.80
2022-10-24T12:07:16.294Z,1.00
2022-10-24T12:17:30.898Z,0.88
2022-10-24T12:27:38.905Z,0.90
2022-10-24T12:37:43.294Z,0.73
2022-10-24T12:58:00.810Z,0.93
2022-10-24T13:08:23.873Z,0.52
2022-10-24T13:18:47.340Z,1.17
2022-10-24T13:28:48.748Z,0.75
2022-10-24T13:38:56.038Z,0.80
2022-10-24T13:48:58.231Z,0.60
2022-10-24T13:58:59.730Z,0.60
2022-10-24T14:09:09.218Z,0.55
2022-10-24T14:19:17.591Z,0.70
2022-10-24T14:29:27.638Z,0.80
2022-10-24T14:39:29.440Z,0.77
2022-10-24T14:49:33.855Z,0.70
2022-10-24T14:59:39.722Z,0.60
2022-10-24T15:10:01.849Z,0.45
2022-10-24T15:20:05.209Z,0.52
2022-10-24T15:30:21.550Z,0.80
2022-10-24T15:40:26.022Z,0.60
2022-10-24T15:50:27.431Z,0.80
2022-10-24T16:00:29.482Z,0.65
2022-10-24T16:10:31.093Z,0.60
2022-10-24T16:20:33.120Z,0.77
2022-10-24T16:30:36.745Z,0.63
2022-10-24T16:40:43.176Z,0.60
2022-10-24T16:50:46.474Z,0.52
2022-10-24T17:00:48.611Z,0.60
2022-10-24T17:10:50.342Z,0.90
2022-10-24T17:20:58.214Z,0.70
2022-10-24T17:30:59.719Z,0.70
2022-10-24T17:41:09.895Z,0.80
2022-10-24T17:51:14.910Z,0.70
2022-10-24T18:01:16.489Z,0.85
2022-10-24T18:11:17.992Z,0.80
2022-10-24T18:21:21.987Z,0.80
2022-10-24T18:31:29.403Z,0.68
2022-10-24T18:41:30.877Z,0.85
2022-10-24T18:51:42.825Z,1.05
2022-10-24T19:02:09.322Z,0.88
2022-10-24T19:12:11.037Z,0.57
2022-10-24T19:22:12.465Z,0.90
2022-10-24T19:32:13.910Z,0.82
2022-10-24T19:42:15.554Z,0.80
2022-10-24T19:52:17.001Z,0.82
2022-10-24T20:02:18.429Z,0.65
2022-10-24T20:12:19.869Z,1.00
2022-10-24T20:22:21.261Z,0.70
2022-10-24T20:32:22.657Z,0.88
2022-10-24T20:42:24.231Z,1.10
2022-10-24T20:52:25.690Z,0.68
2022-10-24T21:02:27.257Z,0.90
2022-10-24T21:12:30.266Z,0.80
2022-10-24T21:22:31.662Z,1.15
2022-10-24T21:32:33.238Z,0.80
2022-10-24T21:42:34.636Z,0.90
2022-10-24T21:52:36.049Z,0.82
2022-10-24T22:02:37.532Z,1.05
2022-10-24T22:12:39.114Z,1.10
2022-10-24T22:22:40.563Z,1.15
2022-10-24T22:32:42.133Z,0.82
2022-10-24T22:42:44.027Z,0.90
2022-10-24T22:52:46.033Z,0.93
2022-10-24T23:02:49.326Z,0.82
2022-10-24T23:12:51.517Z,0.90
2022-10-24T23:23:08.884Z,1.10
2022-10-24T23:33:29.470Z,1.10
2022-10-24T23:43:31.269Z,1.30
2022-10-24T23:53:50.119Z,1.20
